Time;durP1;ratioP1;P1;durP2;ratioP2;P2;SDS_P1;SDS_P2;PMS_P1;PMS_P2;Temp;Humidity;BMP_temperature;BMP_pressure;BME280_temperature;BME280_humidity;BME280_pressure;Samples;Min_cycle;Max_cycle;Signal;HPM_P1;HPM_P2
2021/03/12 00:00:33;;;;;;;12.70;3.22;;;7.70;87.60;;;;;;5116148;28;20038;-67
2021/03/12 00:03:17;;;;;;;11.52;2.83;;;7.70;87.80;;;;;;5115852;28;20427;-66
2021/03/12 00:05:49;;;;;;;12.82;3.10;;;7.70;87.80;;;;;;5116246;28;20070;-67
2021/03/12 00:08:16;;;;;;;19.60;2.67;;;7.70;87.70;;;;;;5115086;28;20107;-67
2021/03/12 00:10:45;;;;;;;13.07;2.63;;;7.60;87.70;;;;;;5115820;28;20828;-67
2021/03/12 00:13:11;;;;;;;9.50;2.33;;;7.60;87.70;;;;;;5115857;28;20035;-67
2021/03/12 00:15:37;;;;;;;10.18;2.75;;;7.70;87.70;;;;;;5115052;28;20032;-67
2021/03/12 00:18:04;;;;;;;9.18;2.63;;;7.60;87.70;;;;;;5115886;28;20023;-67
2021/03/12 00:20:33;;;;;;;19.63;2.88;;;7.60;87.80;;;;;;5115903;27;20035;-66
2021/03/12 00:22:59;;;;;;;15.13;2.38;;;7.60;87.80;;;;;;5113525;28;20035;-67
2021/03/12 00:25:35;;;;;;;11.63;2.92;;;7.60;87.80;;;;;;5114454;28;20028;-67
2021/03/12 00:28:03;;;;;;;11.55;2.88;;;7.60;87.80;;;;;;5114237;28;20095;-67
2021/03/12 00:30:29;;;;;;;11.80;2.50;;;7.60;87.80;;;;;;5114282;28;20101;-67
2021/03/12 00:32:55;;;;;;;12.30;2.50;;;7.60;87.70;;;;;;5115594;28;20039;-67
2021/03/12 00:35:21;;;;;;;16.20;3.40;;;7.50;87.80;;;;;;5113286;28;20047;-67
2021/03/12 00:37:46;;;;;;;14.13;3.17;;;7.50;87.90;;;;;;5113351;28;20538;-66
2021/03/12 00:40:18;;;;;;;7.60;2.15;;;7.50;88.00;;;;;;5115412;28;20027;-67
2021/03/12 00:42:45;;;;;;;16.20;2.72;;;7.50;88.00;;;;;;5114969;28;20035;-69
2021/03/12 00:45:16;;;;;;;19.63;3.30;;;7.40;88.00;;;;;;5113464;28;20050;-67
2021/03/12 00:47:45;;;;;;;11.88;2.75;;;7.50;88.10;;;;;;5108791;28;20024;-67
2021/03/12 00:50:12;;;;;;;8.20;2.55;;;7.40;88.10;;;;;;5105284;28;20043;-66
2021/03/12 00:52:41;;;;;;;9.23;2.45;;;7.40;88.20;;;;;;5113752;28;20550;-67
2021/03/12 00:55:08;;;;;;;14.95;2.88;;;7.40;88.50;;;;;;5113380;28;20039;-66
2021/03/12 00:57:40;;;;;;;10.63;2.50;;;7.30;88.60;;;;;;5112955;28;20032;-66
2021/03/12 01:00:07;;;;;;;9.00;2.72;;;7.30;88.70;;;;;;5113613;28;20118;-67
2021/03/12 01:02:38;;;;;;;11.30;2.85;;;7.30;88.90;;;;;;5113561;28;20028;-67
2021/03/12 01:05:05;;;;;;;14.70;2.78;;;7.30;89.00;;;;;;5114305;28;20031;-67
2021/03/12 01:07:30;;;;;;;14.02;2.70;;;7.20;89.10;;;;;;5113622;28;20055;-67
2021/03/12 01:09:56;;;;;;;19.65;2.78;;;7.20;89.20;;;;;;5113142;28;20094;-66
2021/03/12 01:12:23;;;;;;;11.25;3.50;;;7.20;89.40;;;;;;5112544;28;20118;-67
2021/03/12 01:14:50;;;;;;;12.32;2.75;;;7.20;89.40;;;;;;5113287;28;20437;-67
2021/03/12 01:17:17;;;;;;;6.80;2.22;;;7.20;89.40;;;;;;5113437;28;20024;-67
2021/03/12 01:19:43;;;;;;;14.25;2.72;;;7.20;89.40;;;;;;5112408;28;20528;-67
2021/03/12 01:22:11;;;;;;;18.05;2.83;;;7.20;89.30;;;;;;5113212;28;20041;-67
2021/03/12 01:24:38;;;;;;;14.50;3.00;;;7.20;89.30;;;;;;5113026;28;20059;-67
2021/03/12 01:27:09;;;;;;;14.32;3.15;;;7.20;89.20;;;;;;5112523;28;20031;-67
2021/03/12 01:29:38;;;;;;;12.95;2.42;;;7.20;89.10;;;;;;5113867;28;20502;-67
2021/03/12 01:32:16;;;;;;;8.93;2.63;;;7.20;89.20;;;;;;5112198;28;20051;-66
2021/03/12 01:34:49;;;;;;;17.42;2.97;;;7.20;89.10;;;;;;5111072;28;20024;-66
2021/03/12 01:37:16;;;;;;;15.80;3.10;;;7.20;89.10;;;;;;5112872;28;20047;-66
2021/03/12 01:39:54;;;;;;;12.27;2.72;;;7.20;89.00;;;;;;5111972;28;20034;-66
2021/03/12 01:42:23;;;;;;;13.23;3.15;;;7.20;89.00;;;;;;5112843;28;20352;-66
2021/03/12 01:44:49;;;;;;;24.73;2.92;;;7.20;89.00;;;;;;5112775;28;20028;-66
2021/03/12 01:47:17;;;;;;;9.85;2.63;;;7.20;89.20;;;;;;5111946;28;20471;-66
2021/03/12 01:49:43;;;;;;;14.48;3.05;;;7.10;89.30;;;;;;5112435;28;20043;-66
2021/03/12 01:52:09;;;;;;;14.48;2.88;;;7.20;89.40;;;;;;5112602;28;20028;-66
2021/03/12 01:54:35;;;;;;;9.93;2.88;;;7.20;89.30;;;;;;5111756;28;20031;-66
2021/03/12 01:57:06;;;;;;;13.18;3.08;;;7.10;89.40;;;;;;5112582;28;20027;-66
2021/03/12 01:59:41;;;;;;;14.40;3.53;;;7.10;89.40;;;;;;5112547;28;20035;-66
2021/03/12 02:02:22;;;;;;;9.93;3.55;;;7.10;89.40;;;;;;5111700;28;20024;-66
2021/03/12 02:04:55;;;;;;;13.88;2.90;;;7.10;89.40;;;;;;5112427;28;20047;-66
2021/03/12 02:07:21;;;;;;;10.70;2.83;;;7.10;89.70;;;;;;5111663;28;20513;-66
2021/03/12 02:10:13;;;;;;;13.57;2.90;;;7.00;89.80;;;;;;5113112;28;20141;-66
2021/03/12 02:13:01;;;;;;;12.68;2.88;;;7.10;89.90;;;;;;5113914;28;20024;-66
2021/03/12 02:15:34;;;;;;;8.45;2.85;;;7.10;89.80;;;;;;5111647;28;20466;-66
2021/03/12 02:18:25;;;;;;;12.07;2.67;;;7.10;90.10;;;;;;5112216;28;20035;-66
2021/03/12 02:20:58;;;;;;;19.40;3.20;;;7.10;89.70;;;;;;5112204;28;20032;-66
2021/03/12 02:23:46;;;;;;;12.02;3.25;;;7.10;89.70;;;;;;5111398;28;20130;-66
2021/03/12 02:26:37;;;;;;;14.85;3.58;;;7.10;89.50;;;;;;5112229;28;20035;-66
2021/03/12 02:29:07;;;;;;;10.45;3.38;;;7.10;89.60;;;;;;5111309;28;20512;-66
2021/03/12 02:31:38;;;;;;;13.63;3.08;;;7.10;89.80;;;;;;5112059;28;20040;-66
2021/03/12 02:34:07;;;;;;;13.98;2.92;;;7.00;89.90;;;;;;5111846;28;20043;-66
2021/03/12 02:36:35;;;;;;;11.65;2.95;;;7.00;89.90;;;;;;5111298;28;20085;-66
2021/03/12 02:39:06;;;;;;;10.52;2.58;;;6.90;90.00;;;;;;5111763;28;20110;-66
2021/03/12 02:41:33;;;;;;;14.10;3.45;;;7.00;90.00;;;;;;5111907;28;20027;-66
2021/03/12 02:44:02;;;;;;;9.60;2.17;;;7.00;90.00;;;;;;5110958;28;20058;-66
2021/03/12 02:46:42;;;;;;;15.52;3.20;;;7.00;89.80;;;;;;5101544;28;20039;-66
2021/03/12 02:49:11;;;;;;;12.20;2.97;;;7.00;89.60;;;;;;5107852;28;20035;-66
2021/03/12 02:51:37;;;;;;;13.93;2.90;;;7.00;89.50;;;;;;5111388;28;20016;-66
2021/03/12 02:54:05;;;;;;;11.57;2.72;;;7.00;89.60;;;;;;5106654;28;20432;-66
2021/03/12 02:56:36;;;;;;;11.18;2.60;;;7.00;89.60;;;;;;5110467;28;20111;-67
2021/03/12 02:59:03;;;;;;;11.68;2.47;;;7.10;89.60;;;;;;5112158;28;20474;-66
2021/03/12 03:01:51;;;;;;;16.42;3.08;;;7.10;89.40;;;;;;5115727;28;20039;-66
2021/03/12 03:04:40;;;;;;;17.77;3.60;;;7.10;89.30;;;;;;5115097;28;20031;-66
2021/03/12 03:07:19;;;;;;;14.38;2.33;;;7.10;89.40;;;;;;5115938;28;20024;-66
2021/03/12 03:09:45;;;;;;;5.20;2.03;;;7.10;89.40;;;;;;5116901;28;20035;-66
2021/03/12 03:12:16;;;;;;;7.13;2.60;;;7.10;89.40;;;;;;5115001;28;20505;-66
2021/03/12 03:14:44;;;;;;;14.82;2.75;;;7.10;89.20;;;;;;5115548;28;20483;-66
2021/03/12 03:17:11;;;;;;;10.43;2.80;;;7.10;89.10;;;;;;5117139;28;20031;-66
2021/03/12 03:19:42;;;;;;;10.98;2.35;;;7.00;89.20;;;;;;5114746;28;20060;-67
2021/03/12 03:22:09;;;;;;;5.00;2.20;;;7.00;89.30;;;;;;5116999;28;20051;-66
2021/03/12 03:24:38;;;;;;;13.93;3.17;;;7.10;89.30;;;;;;5100537;28;20032;-67
2021/03/12 03:27:06;;;;;;;11.70;3.08;;;7.00;89.30;;;;;;5114760;28;20436;-66
2021/03/12 03:29:33;;;;;;;7.90;2.50;;;7.00;89.30;;;;;;5115175;28;20067;-66
2021/03/12 03:32:00;;;;;;;11.75;2.65;;;7.10;89.30;;;;;;5114596;28;20058;-66
2021/03/12 03:34:26;;;;;;;10.45;2.97;;;7.10;89.20;;;;;;5115303;28;20031;-66
2021/03/12 03:36:52;;;;;;;11.23;2.25;;;7.10;89.20;;;;;;5115102;28;20043;-66
2021/03/12 03:39:18;;;;;;;22.70;3.42;;;7.10;89.10;;;;;;5114709;28;20115;-66
2021/03/12 03:41:51;;;;;;;17.55;3.30;;;7.10;88.90;;;;;;5114939;28;20020;-66
2021/03/12 03:44:24;;;;;;;14.38;2.85;;;7.00;88.70;;;;;;5115179;28;20061;-66
2021/03/12 03:46:51;;;;;;;12.13;2.67;;;7.10;88.80;;;;;;5114569;28;20019;-67
2021/03/12 03:49:18;;;;;;;9.40;2.78;;;7.00;88.70;;;;;;5116077;28;20510;-66
2021/03/12 03:51:46;;;;;;;7.22;1.88;;;7.10;88.50;;;;;;5115093;28;20505;-66
2021/03/12 03:54:21;;;;;;;15.35;2.90;;;7.10;88.40;;;;;;5114430;28;20059;-66
2021/03/12 03:56:49;;;;;;;10.38;2.22;;;7.10;88.20;;;;;;5114853;28;20028;-67
2021/03/12 03:59:16;;;;;;;18.20;3.08;;;7.10;88.10;;;;;;5114846;28;20024;-67
2021/03/12 04:01:47;;;;;;;11.07;2.60;;;7.10;88.00;;;;;;5113585;28;20023;-66
2021/03/12 04:04:15;;;;;;;9.85;2.53;;;7.10;87.90;;;;;;5114673;28;20032;-66
2021/03/12 04:06:44;;;;;;;10.52;2.60;;;7.00;87.70;;;;;;5114310;28;20024;-66
2021/03/12 04:09:13;;;;;;;12.65;2.45;;;7.00;87.50;;;;;;5114376;28;20494;-65
2021/03/12 04:11:41;;;;;;;11.75;3.17;;;7.00;87.50;;;;;;5113200;28;20046;-65
2021/03/12 04:14:11;;;;;;;17.73;3.78;;;7.00;87.50;;;;;;5113788;28;20394;-66
2021/03/12 04:16:39;;;;;;;18.55;2.95;;;7.00;87.50;;;;;;5114512;28;20020;-66
2021/03/12 04:19:08;;;;;;;15.43;2.75;;;6.90;87.40;;;;;;5114025;28;20053;-66
2021/03/12 04:21:34;;;;;;;13.88;2.60;;;6.90;87.40;;;;;;5114349;28;20030;-66
2021/03/12 04:24:03;;;;;;;10.10;2.78;;;6.90;87.60;;;;;;5113894;28;20034;-66
2021/03/12 04:26:30;;;;;;;15.98;3.13;;;6.80;87.60;;;;;;5111059;28;20023;-66
2021/03/12 04:28:57;;;;;;;14.20;2.85;;;6.80;87.70;;;;;;5111702;28;20024;-66
2021/03/12 04:31:25;;;;;;;12.73;3.00;;;6.80;87.70;;;;;;5113397;28;20050;-67
2021/03/12 04:33:54;;;;;;;8.25;2.40;;;6.80;87.70;;;;;;5113863;28;20432;-66
2021/03/12 04:36:20;;;;;;;14.63;3.70;;;6.80;87.60;;;;;;5113338;28;20130;-66
2021/03/12 04:38:51;;;;;;;13.07;2.53;;;6.80;87.40;;;;;;5113371;28;20028;-67
2021/03/12 04:41:17;;;;;;;10.38;2.50;;;6.80;87.30;;;;;;5113792;28;20024;-67
2021/03/12 04:43:45;;;;;;;12.30;3.08;;;6.80;87.10;;;;;;5113345;28;20084;-67
2021/03/12 04:46:12;;;;;;;15.32;2.67;;;6.80;87.10;;;;;;5115371;28;20032;-67
2021/03/12 04:48:43;;;;;;;11.65;2.45;;;6.80;87.00;;;;;;5115157;28;20032;-67
2021/03/12 04:51:12;;;;;;;16.50;3.17;;;6.80;87.00;;;;;;5113020;28;20070;-66
2021/03/12 04:53:41;;;;;;;11.65;2.85;;;6.70;86.90;;;;;;5113892;28;20046;-67
2021/03/12 04:56:08;;;;;;;10.30;2.08;;;6.70;87.00;;;;;;5113021;28;20023;-67
2021/03/12 04:58:38;;;;;;;14.23;2.80;;;6.80;87.00;;;;;;5113082;28;20024;-67
2021/03/12 05:01:08;;;;;;;9.45;1.83;;;6.70;86.90;;;;;;5113286;28;20027;-67
2021/03/12 05:03:37;;;;;;;12.75;2.60;;;6.60;87.10;;;;;;5113078;28;20016;-66
2021/03/12 05:06:04;;;;;;;7.80;2.30;;;6.60;87.10;;;;;;5113484;28;20390;-66
2021/03/12 05:08:31;;;;;;;13.15;2.25;;;6.60;87.10;;;;;;5113656;28;20019;-67
2021/03/12 05:11:05;;;;;;;;;;;6.60;87.10;;;;;;5113135;28;20044;-67
2021/03/12 05:13:39;;;;;;;9.80;2.78;;;6.60;86.90;;;;;;5113459;28;19990;-67
2021/03/12 05:16:05;;;;;;;16.60;2.33;;;6.70;86.80;;;;;;5113377;28;20031;-66
2021/03/12 05:18:32;;;;;;;8.48;1.90;;;6.70;86.80;;;;;;5099796;28;20477;-67
2021/03/12 05:21:01;;;;;;;7.75;2.15;;;6.70;86.80;;;;;;5113349;28;20020;-66
2021/03/12 05:23:27;;;;;;;9.20;2.33;;;6.70;86.70;;;;;;5112654;28;20093;-66
2021/03/12 05:25:54;;;;;;;11.52;2.72;;;6.70;86.90;;;;;;5112474;28;20039;-66
2021/03/12 05:28:22;;;;;;;8.55;2.33;;;6.70;86.90;;;;;;5114306;28;20032;-67
2021/03/12 05:30:48;;;;;;;11.68;2.47;;;6.70;86.80;;;;;;5114232;28;20031;-67
2021/03/12 05:33:14;;;;;;;10.30;2.38;;;6.70;86.80;;;;;;5113589;28;20024;-67
2021/03/12 05:35:39;;;;;;;10.07;2.25;;;6.60;86.80;;;;;;5114345;28;20032;-67
2021/03/12 05:38:05;;;;;;;5.93;2.13;;;6.60;86.90;;;;;;5112954;28;20034;-67
2021/03/12 05:40:32;;;;;;;17.40;3.45;;;6.60;86.90;;;;;;5111989;28;20482;-67
2021/03/12 05:42:59;;;;;;;8.02;2.33;;;6.70;87.00;;;;;;5112826;28;20028;-67
2021/03/12 05:45:26;;;;;;;8.68;2.30;;;6.70;87.00;;;;;;5113249;28;20076;-67
2021/03/12 05:48:04;;;;;;;6.10;1.98;;;6.70;87.00;;;;;;5112891;28;20546;-67
2021/03/12 05:50:29;;;;;;;8.52;2.17;;;6.70;87.10;;;;;;5112741;28;20486;-67
2021/03/12 05:52:56;;;;;;;18.70;2.88;;;6.60;87.00;;;;;;5110764;28;20058;-67
2021/03/12 05:55:22;;;;;;;8.90;2.03;;;6.60;87.30;;;;;;5112001;28;20041;-67
2021/03/12 05:57:48;;;;;;;18.42;2.35;;;6.60;87.50;;;;;;5112089;28;20107;-67
2021/03/12 06:00:16;;;;;;;10.93;2.67;;;6.60;88.10;;;;;;5112887;28;20073;-67
2021/03/12 06:02:50;;;;;;;9.95;1.90;;;6.60;87.60;;;;;;5113786;28;20040;-68
2021/03/12 06:05:39;;;;;;;10.10;2.72;;;6.60;87.50;;;;;;5091021;28;20032;-71
2021/03/12 06:08:05;;;;;;;9.68;2.97;;;6.60;87.40;;;;;;5097603;28;20020;-71
2021/03/12 06:10:32;;;;;;;12.43;2.67;;;6.60;87.50;;;;;;5093173;28;20035;-69
2021/03/12 06:13:03;;;;;;;14.38;2.20;;;6.50;87.50;;;;;;5095191;28;20080;-69
2021/03/12 06:15:34;;;;;;;11.07;2.63;;;6.50;87.90;;;;;;5093412;28;20475;-67
2021/03/12 06:18:16;;;;;;;10.35;2.28;;;6.50;88.00;;;;;;5091436;28;20089;-69
2021/03/12 06:20:45;;;;;;;8.60;2.20;;;6.50;88.10;;;;;;5102641;28;20028;-70
2021/03/12 06:23:11;;;;;;;9.68;2.38;;;6.50;88.20;;;;;;5101983;28;20081;-70
2021/03/12 06:25:37;;;;;;;19.52;2.67;;;6.50;88.30;;;;;;5106051;28;20032;-70
2021/03/12 06:28:32;;;;;;;11.45;2.97;;;6.40;88.30;;;;;;5103545;28;20039;-69
2021/03/12 06:31:27;;;;;;;11.93;2.65;;;6.50;88.40;;;;;;5102036;28;20062;-68
2021/03/12 06:34:11;;;;;;;9.43;2.28;;;6.50;88.60;;;;;;5111846;28;20034;-68
2021/03/12 06:37:30;;;;;;;8.82;1.95;;;6.50;88.50;;;;;;5111923;28;20035;-69
2021/03/12 06:40:22;;;;;;;9.45;2.13;;;6.50;88.50;;;;;;5104803;28;20390;-69
2021/03/12 06:43:09;;;;;;;14.45;2.45;;;6.50;88.40;;;;;;5111146;28;20180;-69
2021/03/12 06:45:41;;;;;;;;;;;6.50;88.40;;;;;;5111806;28;20031;-70
2021/03/12 06:48:19;;;;;;;8.60;2.08;;;6.50;88.30;;;;;;5111494;28;19908;-69
2021/03/12 06:50:48;;;;;;;10.77;1.92;;;6.60;88.40;;;;;;5110455;28;20032;-70
2021/03/12 06:53:23;;;;;;;18.17;2.88;;;6.50;88.40;;;;;;5111361;28;20043;-71
2021/03/12 06:55:50;;;;;;;;;;;6.50;88.70;;;;;;5110563;28;20031;-70
2021/03/12 06:58:30;;;;;;;10.63;1.90;;;6.50;88.80;;;;;;5111146;28;20021;-70
2021/03/12 07:01:17;;;;;;;;;;;6.50;89.10;;;;;;5111222;28;20032;-67
2021/03/12 07:03:43;;;;;;;8.00;1.88;;;6.50;89.20;;;;;;5110244;28;20491;-69
2021/03/12 07:06:25;;;;;;;15.73;2.60;;;6.50;89.30;;;;;;5110072;28;20077;-69
2021/03/12 07:09:05;;;;;;;16.42;2.97;;;6.50;89.40;;;;;;5108793;28;20660;-69
2021/03/12 07:11:55;;;;;;;9.63;2.25;;;6.40;89.70;;;;;;5108899;28;20028;-69
2021/03/12 07:14:40;;;;;;;13.68;3.17;;;6.40;89.80;;;;;;5111106;28;20496;-69
2021/03/12 07:17:18;;;;;;;12.38;2.58;;;6.50;89.90;;;;;;5108661;28;20028;-69
2021/03/12 07:19:45;;;;;;;13.38;2.45;;;6.50;89.80;;;;;;5110271;28;20020;-70
2021/03/12 07:22:15;;;;;;;9.90;3.00;;;6.60;89.90;;;;;;5110871;28;20032;-69
2021/03/12 07:24:44;;;;;;;14.15;2.20;;;6.60;89.80;;;;;;5110829;28;20027;-69
2021/03/12 07:27:13;;;;;;;14.82;2.70;;;6.60;89.70;;;;;;5112743;28;20378;-69
2021/03/12 07:30:07;;;;;;;12.27;2.72;;;6.60;89.50;;;;;;5109229;28;20074;-69
2021/03/12 07:32:39;;;;;;;14.95;3.40;;;6.60;89.80;;;;;;5110605;28;20462;-69
2021/03/12 07:35:07;;;;;;;7.00;2.25;;;6.60;90.00;;;;;;5111399;28;20053;-69
2021/03/12 07:37:53;;;;;;;11.38;2.97;;;6.60;90.00;;;;;;5111795;28;20505;-69
2021/03/12 07:40:23;;;;;;;14.68;2.95;;;6.60;90.00;;;;;;5111372;28;20027;-69
2021/03/12 07:42:50;;;;;;;9.00;2.38;;;6.60;90.00;;;;;;5111272;28;20475;-70
2021/03/12 07:45:30;;;;;;;13.30;3.25;;;6.60;90.00;;;;;;5112194;28;20375;-69
2021/03/12 07:48:12;;;;;;;10.15;2.78;;;6.70;90.00;;;;;;5116749;28;20039;-69
2021/03/12 07:51:06;;;;;;;13.15;2.65;;;6.70;90.00;;;;;;5091174;28;20051;-69
2021/03/12 07:53:48;;;;;;;8.65;1.90;;;6.80;90.00;;;;;;5114404;28;20028;-69
2021/03/12 07:56:44;;;;;;;11.52;3.22;;;6.80;90.00;;;;;;5114892;28;20114;-69
2021/03/12 07:59:47;;;;;;;18.65;3.25;;;6.80;90.00;;;;;;5114200;28;20115;-70
2021/03/12 08:02:57;;;;;;;16.40;2.80;;;6.80;90.20;;;;;;5116259;28;20042;-69
2021/03/12 08:05:44;;;;;;;14.02;3.22;;;6.70;90.20;;;;;;5114991;28;20039;-70
2021/03/12 08:08:32;;;;;;;15.85;3.13;;;6.80;90.30;;;;;;5102376;28;20506;-69
2021/03/12 08:11:21;;;;;;;9.40;2.85;;;6.80;90.30;;;;;;5114693;28;20051;-69
2021/03/12 08:14:09;;;;;;;23.38;3.95;;;6.80;90.30;;;;;;5114030;28;20394;-70
2021/03/12 08:16:37;;;;;;;13.40;2.95;;;6.90;90.20;;;;;;5114529;28;20026;-69
2021/03/12 08:19:29;;;;;;;20.90;3.65;;;7.00;90.10;;;;;;5114506;28;20055;-70
2021/03/12 08:22:26;;;;;;;;;;;7.00;90.10;;;;;;5101947;28;20036;-70
2021/03/12 08:24:56;;;;;;;16.02;3.28;;;7.00;90.00;;;;;;5114358;28;19911;-70
2021/03/12 08:27:45;;;;;;;18.80;4.00;;;7.00;90.10;;;;;;5114930;28;20105;-70
2021/03/12 08:30:29;;;;;;;17.15;2.85;;;7.00;90.10;;;;;;5115488;28;20050;-70
2021/03/12 08:33:07;;;;;;;10.35;2.53;;;7.10;90.20;;;;;;5114366;28;20033;-70
2021/03/12 08:35:51;;;;;;;23.33;4.28;;;7.10;90.20;;;;;;5113653;28;20666;-69
2021/03/12 08:38:54;;;;;;;16.48;3.30;;;7.10;90.30;;;;;;5072622;28;20124;-71
2021/03/12 08:41:41;;;;;;;14.15;2.85;;;7.10;90.40;;;;;;5070389;28;20036;-71
2021/03/12 08:44:23;;;;;;;16.38;4.15;;;7.20;90.40;;;;;;5084191;28;20036;-68
2021/03/12 08:47:18;;;;;;;15.52;3.30;;;7.30;90.30;;;;;;5112641;28;20051;-69
2021/03/12 08:49:46;;;;;;;8.65;3.20;;;7.30;90.20;;;;;;5111635;28;20039;-69
2021/03/12 08:52:15;;;;;;;14.25;2.83;;;7.30;90.20;;;;;;5113094;28;20165;-69
2021/03/12 08:54:45;;;;;;;15.63;4.00;;;7.40;90.20;;;;;;5107180;28;20076;-69
2021/03/12 08:57:21;;;;;;;14.85;3.47;;;7.40;90.10;;;;;;5128223;27;20118;-69
2021/03/12 09:00:06;;;;;;;10.02;2.97;;;7.40;90.10;;;;;;5113587;28;20023;-69
2021/03/12 09:02:53;;;;;;;15.77;2.90;;;7.50;90.10;;;;;;5110323;28;20035;-69
2021/03/12 09:05:32;;;;;;;17.95;3.92;;;7.50;90.10;;;;;;5113692;28;20062;-69
2021/03/12 09:08:37;;;;;;;15.90;3.67;;;7.60;90.00;;;;;;5047991;28;20216;-69
2021/03/12 09:11:27;;;;;;;15.32;2.97;;;7.60;89.70;;;;;;5051201;28;20059;-69
2021/03/12 09:14:05;;;;;;;17.63;3.22;;;7.60;89.70;;;;;;5089677;28;20053;-69
2021/03/12 09:16:31;;;;;;;15.73;3.00;;;7.60;89.80;;;;;;5114060;28;20031;-69
2021/03/12 09:18:58;;;;;;;10.65;2.75;;;7.70;89.60;;;;;;5113386;28;20051;-69
2021/03/12 09:21:38;;;;;;;13.68;3.67;;;7.70;89.60;;;;;;5113167;28;20034;-69
2021/03/12 09:24:04;;;;;;;11.98;2.42;;;7.70;89.50;;;;;;5112481;28;20024;-69
2021/03/12 09:26:37;;;;;;;12.32;2.63;;;7.70;89.50;;;;;;5113264;28;20035;-69
2021/03/12 09:29:16;;;;;;;18.80;3.08;;;7.80;89.40;;;;;;5113058;28;20093;-69
2021/03/12 09:31:42;;;;;;;13.00;2.78;;;7.80;89.40;;;;;;5112177;28;20054;-69
2021/03/12 09:34:24;;;;;;;9.50;2.17;;;7.90;89.40;;;;;;5112992;28;20034;-69
2021/03/12 09:37:04;;;;;;;14.23;2.72;;;7.90;89.30;;;;;;5112867;28;20053;-69
2021/03/12 09:39:40;;;;;;;12.32;2.42;;;8.00;89.20;;;;;;5112158;28;20386;-69
2021/03/12 09:42:17;;;;;;;16.67;3.40;;;8.00;89.10;;;;;;5113905;28;20027;-69
2021/03/12 09:44:51;;;;;;;14.10;2.88;;;8.00;88.90;;;;;;5112130;28;20037;-66
2021/03/12 09:47:24;;;;;;;13.97;3.20;;;8.00;88.90;;;;;;5112410;28;20474;-64
2021/03/12 09:49:56;;;;;;;15.48;3.42;;;8.00;89.10;;;;;;5112617;28;20490;-65
2021/03/12 09:52:31;;;;;;;14.10;3.50;;;8.10;89.20;;;;;;5104028;28;20073;-68
2021/03/12 09:55:06;;;;;;;14.10;2.83;;;8.10;89.20;;;;;;5099085;28;20036;-68
2021/03/12 09:57:36;;;;;;;15.80;3.13;;;8.20;89.10;;;;;;5101968;28;20024;-68
2021/03/12 10:00:09;;;;;;;7.38;2.88;;;8.30;89.00;;;;;;5092560;28;21791;-68
2021/03/12 10:03:01;;;;;;;12.15;2.42;;;8.30;88.90;;;;;;5109424;28;20482;-66
2021/03/12 10:05:36;;;;;;;14.32;3.08;;;8.40;88.80;;;;;;5104682;28;20375;-66
2021/03/12 10:08:12;;;;;;;14.50;3.03;;;8.40;88.60;;;;;;5113358;28;20110;-66
2021/03/12 10:10:55;;;;;;;13.43;3.88;;;8.50;88.50;;;;;;5108136;28;20032;-70
2021/03/12 10:13:26;;;;;;;8.87;3.03;;;8.50;88.30;;;;;;5111295;28;20027;-66
2021/03/12 10:15:55;;;;;;;23.15;4.25;;;8.50;87.90;;;;;;5111849;28;20027;-66
2021/03/12 10:18:31;;;;;;;13.32;2.80;;;8.60;87.90;;;;;;5111832;28;20502;-66
2021/03/12 10:21:08;;;;;;;9.55;2.53;;;8.60;87.80;;;;;;5112559;28;20024;-66
2021/03/12 10:23:34;;;;;;;16.27;2.33;;;8.60;87.70;;;;;;5113071;28;20110;-66
2021/03/12 10:26:05;;;;;;;10.73;2.10;;;8.60;87.50;;;;;;5113211;28;20119;-66
2021/03/12 10:28:30;;;;;;;6.18;2.42;;;8.60;87.00;;;;;;5112742;28;20020;-65
2021/03/12 10:30:58;;;;;;;7.90;2.08;;;8.60;86.90;;;;;;5113120;28;20387;-66
2021/03/12 10:33:30;;;;;;;10.05;2.40;;;8.60;87.20;;;;;;5113215;28;20032;-65
2021/03/12 10:36:00;;;;;;;6.43;1.75;;;8.50;87.70;;;;;;5112645;28;20039;-65
2021/03/12 10:38:31;;;;;;;6.18;1.98;;;8.50;88.00;;;;;;5113139;28;20024;-65
2021/03/12 10:41:04;;;;;;;8.93;2.58;;;8.50;87.90;;;;;;5111214;28;20034;-70
2021/03/12 10:43:34;;;;;;;11.90;2.60;;;8.60;88.00;;;;;;5111962;28;20028;-73
2021/03/12 10:46:04;;;;;;;15.10;2.53;;;8.60;88.10;;;;;;5113090;28;20031;-73
2021/03/12 10:48:43;;;;;;;11.43;2.22;;;8.60;88.20;;;;;;5111262;28;20049;-73
2021/03/12 10:51:10;;;;;;;8.23;1.75;;;8.60;88.20;;;;;;5112861;28;20043;-73
2021/03/12 10:53:55;;;;;;;9.18;2.50;;;8.70;88.40;;;;;;5112582;28;20059;-74
2021/03/12 10:56:26;;;;;;;11.57;2.35;;;8.80;88.50;;;;;;5109877;28;20497;-74
2021/03/12 10:58:53;;;;;;;6.22;1.27;;;8.80;88.40;;;;;;5111651;28;20042;-74
2021/03/12 11:01:29;;;;;;;8.27;2.20;;;8.90;88.40;;;;;;5112691;28;20076;-72
2021/03/12 11:03:58;;;;;;;7.72;2.50;;;9.00;88.40;;;;;;5112519;28;20037;-72
2021/03/12 11:06:38;;;;;;;6.95;2.05;;;9.00;88.20;;;;;;5112601;28;20497;-67
2021/03/12 11:09:12;;;;;;;16.92;3.83;;;9.10;88.20;;;;;;5112311;28;20031;-68
2021/03/12 11:11:41;;;;;;;9.40;3.03;;;9.10;88.00;;;;;;5112945;28;20028;-69
2021/03/12 11:14:08;;;;;;;9.30;2.85;;;9.10;88.00;;;;;;5112898;28;20471;-69
2021/03/12 11:16:34;;;;;;;19.52;4.40;;;9.20;88.10;;;;;;5112019;28;20032;-67
2021/03/12 11:19:00;;;;;;;13.50;3.00;;;9.20;88.10;;;;;;5112641;28;20031;-68
2021/03/12 11:21:28;;;;;;;14.02;4.15;;;9.20;88.30;;;;;;5115708;28;20035;-68
2021/03/12 11:23:54;;;;;;;13.82;3.83;;;9.20;88.40;;;;;;5114798;28;20035;-69
2021/03/12 11:26:21;;;;;;;17.40;4.05;;;9.30;88.20;;;;;;5116708;28;20050;-69
2021/03/12 11:28:47;;;;;;;15.48;3.35;;;9.30;88.10;;;;;;5116649;28;20038;-68
2021/03/12 11:31:13;;;;;;;16.42;3.17;;;9.30;88.00;;;;;;5115411;28;20807;-69
2021/03/12 11:33:39;;;;;;;12.43;2.92;;;9.30;88.10;;;;;;5116950;28;20028;-68
2021/03/12 11:36:07;;;;;;;12.10;2.70;;;9.20;88.00;;;;;;5116675;28;20053;-68
2021/03/12 11:38:33;;;;;;;9.25;2.60;;;9.20;88.30;;;;;;5116045;28;20027;-68
2021/03/12 11:41:00;;;;;;;9.02;2.80;;;9.20;88.30;;;;;;5116607;28;20405;-69
2021/03/12 11:43:27;;;;;;;9.23;2.60;;;9.20;88.30;;;;;;5116354;28;20035;-68
2021/03/12 11:45:53;;;;;;;12.70;3.45;;;9.20;88.20;;;;;;5115494;28;20431;-68
2021/03/12 11:48:21;;;;;;;11.40;2.78;;;9.30;88.20;;;;;;5116089;28;20475;-68
2021/03/12 11:50:47;;;;;;;13.48;3.10;;;9.30;88.00;;;;;;5116023;27;20040;-68
2021/03/12 11:53:13;;;;;;;14.73;3.40;;;9.30;88.10;;;;;;5113987;28;20032;-68
2021/03/12 11:55:39;;;;;;;8.60;2.60;;;9.30;88.60;;;;;;5115558;28;20031;-67
2021/03/12 11:58:04;;;;;;;7.13;1.75;;;9.30;87.80;;;;;;5114263;28;20106;-69
2021/03/12 12:00:30;;;;;;;7.10;2.00;;;9.20;87.60;;;;;;5116346;28;20024;-66
2021/03/12 12:02:56;;;;;;;5.75;1.42;;;9.10;87.80;;;;;;5116074;28;20023;-66
2021/03/12 12:05:22;;;;;;;5.70;1.98;;;9.00;87.80;;;;;;5115633;28;20043;-66
2021/03/12 12:07:54;;;;;;;5.32;1.80;;;8.90;88.00;;;;;;5115742;28;20055;-66
2021/03/12 12:10:20;;;;;;;6.43;1.75;;;8.90;88.00;;;;;;5116033;28;20043;-66
2021/03/12 12:12:47;;;;;;;4.38;1.92;;;8.80;88.10;;;;;;5115042;28;20482;-66
2021/03/12 12:15:17;;;;;;;6.47;1.85;;;8.90;88.30;;;;;;5116027;28;20047;-66
2021/03/12 12:17:47;;;;;;;6.35;2.58;;;8.90;88.20;;;;;;5116110;28;20487;-66
2021/03/12 12:20:14;;;;;;;7.55;2.03;;;8.90;88.00;;;;;;5115217;28;20489;-66
2021/03/12 12:22:40;;;;;;;7.78;2.47;;;9.00;88.20;;;;;;5115823;28;20060;-66
2021/03/12 12:25:08;;;;;;;9.93;2.95;;;9.00;88.40;;;;;;5115727;28;20028;-66
2021/03/12 12:27:33;;;;;;;10.15;2.38;;;8.90;88.40;;;;;;5114794;28;20032;-67
2021/03/12 12:29:59;;;;;;;8.57;2.20;;;9.00;88.40;;;;;;5114951;28;20031;-66
2021/03/12 12:32:25;;;;;;;8.02;2.40;;;9.00;88.40;;;;;;5112774;28;20044;-66
2021/03/12 12:34:50;;;;;;;6.35;2.50;;;9.00;88.40;;;;;;5111792;28;20110;-66
2021/03/12 12:37:16;;;;;;;10.32;2.60;;;9.00;88.40;;;;;;5113222;28;20027;-65
2021/03/12 12:39:42;;;;;;;9.30;2.10;;;9.10;88.40;;;;;;5114805;28;20051;-66
2021/03/12 12:42:08;;;;;;;5.97;2.17;;;9.10;88.30;;;;;;5114192;28;20455;-66
2021/03/12 12:44:33;;;;;;;6.22;2.53;;;9.10;88.40;;;;;;5115061;28;20554;-66
2021/03/12 12:46:59;;;;;;;11.45;2.72;;;9.10;88.30;;;;;;5114916;28;20023;-66
2021/03/12 12:49:24;;;;;;;7.57;2.70;;;9.10;88.30;;;;;;5113912;28;20113;-66
2021/03/12 12:51:50;;;;;;;10.30;2.63;;;9.20;88.40;;;;;;5108745;28;20066;-66
2021/03/12 12:54:16;;;;;;;6.35;2.17;;;9.30;88.30;;;;;;5112221;28;20032;-67
2021/03/12 12:56:41;;;;;;;9.73;2.60;;;9.20;88.20;;;;;;5114885;28;20027;-66
2021/03/12 12:59:07;;;;;;;9.30;1.90;;;9.20;88.30;;;;;;5114572;28;20034;-66
2021/03/12 13:01:33;;;;;;;12.52;2.67;;;9.30;88.40;;;;;;5112657;28;20031;-67
2021/03/12 13:03:59;;;;;;;7.00;2.05;;;9.30;88.70;;;;;;5114400;28;20019;-67
2021/03/12 13:06:25;;;;;;;10.88;1.83;;;9.30;88.80;;;;;;5112653;28;20026;-67
2021/03/12 13:08:50;;;;;;;6.40;1.98;;;9.30;88.80;;;;;;5106971;28;20020;-67
2021/03/12 13:11:16;;;;;;;9.57;2.80;;;9.40;89.20;;;;;;5108218;28;20394;-67
2021/03/12 13:13:42;;;;;;;4.65;1.95;;;9.40;89.20;;;;;;5113624;28;20031;-67
2021/03/12 13:16:09;;;;;;;10.77;2.65;;;9.40;89.20;;;;;;5113358;28;20103;-68